Riberalta, Riberalta Airport (SLRI)

NameRiberalta Airport
CityRiberalta
CountryBolivia
ICAOSLRI
IATARIB
Altitude141 m
CoordinatesGoogle Map
Live Air TrafficLiveATC.net
METARSLRI 172200Z 00000KT 9999 FEW017 FEW020CB BKN200 31/23 Q1009
2019-10-17 22:00:00 Wind: North (0°) 0 m/s - Visibility: > 10000 m - Temperature: 31 °C - Dew point: 23 °C - Humidity: 62.4% - Pressure: 1009 hPa

Sorry, no flights used the airport in this database.